createdAt,value
2023-01-13T00:02:21.315Z,2.30
2023-01-13T00:04:48.702Z,2.20
2023-01-13T00:07:15.497Z,2.30
2023-01-13T00:09:42.213Z,2.50
2023-01-13T00:12:08.749Z,2.70
2023-01-13T00:14:36.117Z,2.40
2023-01-13T00:17:03.676Z,2.40
2023-01-13T00:19:30.513Z,2.70
2023-01-13T00:21:57.310Z,2.80
2023-01-13T00:24:24.003Z,2.70
2023-01-13T00:26:52.182Z,2.60
2023-01-13T00:29:19.169Z,2.20
2023-01-13T00:31:45.746Z,2.20
2023-01-13T00:34:12.488Z,2.60
2023-01-13T00:36:39.386Z,2.10
2023-01-13T00:39:06.170Z,2.50
2023-01-13T00:41:52.981Z,2.20
2023-01-13T00:44:20.027Z,2.30
2023-01-13T00:46:46.914Z,2.40
2023-01-13T00:49:13.950Z,2.70
2023-01-13T00:51:49.706Z,2.30
2023-01-13T00:54:16.722Z,2.80
2023-01-13T00:56:46.027Z,2.80
2023-01-13T00:59:13.504Z,3.20
2023-01-13T01:01:43.400Z,3.00
2023-01-13T01:04:10.650Z,3.00
2023-01-13T01:06:37.494Z,3.10
2023-01-13T01:09:04.744Z,2.70
2023-01-13T01:11:32.845Z,2.90
2023-01-13T01:14:01.146Z,3.30
2023-01-13T01:16:29.500Z,2.60
2023-01-13T01:18:56.425Z,3.10
2023-01-13T01:21:24.300Z,3.00
2023-01-13T01:23:51.047Z,3.10
2023-01-13T01:26:19.350Z,3.00
2023-01-13T01:28:46.447Z,3.00
2023-01-13T01:31:14.525Z,2.80
2023-01-13T01:33:41.865Z,3.00
2023-01-13T01:36:09.325Z,2.70
2023-01-13T01:38:36.065Z,2.60
2023-01-13T01:41:03.212Z,3.00
2023-01-13T01:44:07.597Z,3.20
2023-01-13T01:46:34.683Z,3.50
2023-01-13T01:49:13.734Z,2.80
2023-01-13T01:51:45.269Z,2.80
2023-01-13T01:54:14.284Z,3.00
2023-01-13T01:56:42.580Z,2.90
2023-01-13T01:59:09.407Z,2.60
2023-01-13T02:01:36.604Z,3.00
2023-01-13T02:04:09.051Z,2.70
2023-01-13T02:06:36.054Z,2.80
2023-01-13T02:09:03.251Z,2.60
2023-01-13T02:11:50.546Z,2.70
2023-01-13T02:14:17.571Z,2.10
2023-01-13T02:16:57.332Z,2.70
2023-01-13T02:19:26.951Z,2.90
2023-01-13T02:22:02.759Z,3.00
2023-01-13T02:24:53.886Z,2.60
2023-01-13T02:27:31.292Z,2.40
2023-01-13T02:30:42.991Z,2.80
2023-01-13T02:33:09.667Z,2.90
2023-01-13T02:35:39.734Z,2.90
2023-01-13T02:38:08.011Z,2.50
2023-01-13T02:40:45.679Z,2.30
2023-01-13T02:43:40.093Z,2.70
2023-01-13T02:46:14.542Z,2.70
2023-01-13T02:48:42.934Z,1.90
2023-01-13T02:51:13.046Z,2.70
2023-01-13T02:53:45.491Z,2.80
2023-01-13T02:56:13.049Z,2.50
2023-01-13T02:58:41.425Z,3.30
2023-01-13T03:01:08.315Z,2.30
2023-01-13T03:03:35.946Z,2.50
2023-01-13T03:06:11.514Z,2.40
2023-01-13T03:08:42.746Z,2.50
2023-01-13T03:13:54.347Z,2.30
2023-01-13T03:16:29.580Z,2.10
2023-01-13T03:19:11.189Z,2.90
2023-01-13T03:21:47.003Z,2.10
2023-01-13T03:24:19.855Z,2.00
2023-01-13T03:26:52.376Z,2.40
2023-01-13T03:29:25.233Z,2.30
2023-01-13T03:31:58.064Z,2.30
2023-01-13T03:34:31.176Z,2.40
2023-01-13T03:37:05.029Z,2.30
2023-01-13T03:39:35.666Z,2.20
2023-01-13T03:42:32.304Z,2.90
2023-01-13T03:45:12.442Z,2.70
2023-01-13T03:47:41.997Z,2.20
2023-01-13T03:50:19.789Z,2.40
2023-01-13T03:52:49.534Z,2.50
2023-01-13T03:55:18.154Z,2.10
2023-01-13T03:57:53.657Z,2.40
2023-01-13T04:00:31.603Z,3.40
2023-01-13T04:03:00.463Z,2.20
2023-01-13T04:05:28.104Z,2.40
2023-01-13T04:07:58.325Z,2.10
2023-01-13T04:10:29.967Z,2.50
2023-01-13T04:13:05.932Z,2.40
2023-01-13T04:15:34.277Z,2.20
2023-01-13T04:18:01.337Z,1.90
2023-01-13T04:20:28.202Z,1.80
2023-01-13T04:22:54.822Z,2.20
2023-01-13T04:25:21.329Z,1.70
2023-01-13T04:27:48.007Z,1.80
2023-01-13T04:30:14.739Z,1.70
2023-01-13T04:32:41.284Z,3.80
2023-01-13T04:35:07.950Z,2.00
2023-01-13T04:37:34.639Z,2.90
2023-01-13T04:40:03.514Z,6.50
2023-01-13T04:42:30.067Z,2.50
2023-01-13T04:44:56.629Z,4.80
2023-01-13T04:47:25.380Z,3.70
2023-01-13T04:49:51.827Z,3.70
2023-01-13T04:55:38.219Z,3.40
2023-01-13T04:58:07.631Z,3.00
2023-01-13T05:00:36.541Z,2.40
2023-01-13T05:03:05.204Z,2.20
2023-01-13T05:05:33.176Z,2.50
2023-01-13T05:08:03.511Z,2.10
2023-01-13T05:10:31.510Z,2.40
2023-01-13T05:13:17.934Z,2.20
2023-01-13T05:16:24.662Z,10.90
2023-01-13T05:18:52.823Z,24.60
2023-01-13T05:21:39.666Z,17.70
2023-01-13T05:24:28.605Z,14.00
2023-01-13T05:26:56.556Z,62.80
2023-01-13T05:29:24.636Z,7.30
2023-01-13T05:31:52.793Z,30.90
2023-01-13T05:34:20.782Z,11.30
2023-01-13T05:36:48.816Z,9.60
2023-01-13T05:39:16.717Z,2.30
2023-01-13T05:42:10.983Z,3.00
2023-01-13T05:44:38.950Z,3.90
2023-01-13T05:47:10.624Z,3.30
2023-01-13T05:49:39.938Z,2.20
2023-01-13T05:52:09.201Z,3.30
2023-01-13T05:54:41.374Z,3.30
2023-01-13T05:57:09.337Z,2.30
2023-01-13T05:59:37.439Z,1.80
2023-01-13T06:02:08.883Z,2.30
2023-01-13T06:04:37.147Z,2.30
2023-01-13T06:07:07.798Z,2.20
2023-01-13T06:09:38.363Z,2.40
2023-01-13T06:12:09.748Z,1.70
2023-01-13T06:14:40.680Z,1.50
2023-01-13T06:17:15.799Z,1.70
2023-01-13T06:19:43.841Z,1.60
2023-01-13T06:22:26.676Z,1.70
2023-01-13T06:24:54.640Z,2.00
2023-01-13T06:27:23.151Z,1.80
2023-01-13T06:29:51.161Z,2.00
2023-01-13T06:32:21.123Z,1.50
2023-01-13T06:34:53.459Z,1.80
2023-01-13T06:37:25.364Z,1.50
2023-01-13T06:39:58.195Z,2.20
2023-01-13T06:42:46.191Z,1.60
2023-01-13T06:45:18.189Z,1.60
2023-01-13T06:47:49.992Z,1.90
2023-01-13T06:50:18.682Z,1.60
2023-01-13T06:52:46.839Z,1.70
2023-01-13T06:55:15.063Z,1.80
2023-01-13T06:57:53.482Z,1.60
2023-01-13T07:00:22.317Z,1.60
2023-01-13T07:02:50.712Z,1.60
2023-01-13T07:05:20.437Z,1.50
2023-01-13T07:07:48.602Z,2.40
2023-01-13T07:10:22.316Z,1.40
2023-01-13T07:13:09.110Z,1.70
2023-01-13T07:15:37.264Z,1.50
2023-01-13T07:18:05.208Z,1.60
2023-01-13T07:20:34.068Z,1.90
2023-01-13T07:23:02.170Z,1.60
2023-01-13T07:25:30.783Z,3.00
2023-01-13T07:28:01.269Z,2.90
2023-01-13T07:30:29.362Z,3.60
2023-01-13T07:32:57.451Z,6.20
2023-01-13T07:35:25.468Z,3.80
2023-01-13T07:37:53.471Z,4.30
2023-01-13T07:40:24.241Z,3.80
2023-01-13T07:43:10.708Z,3.30
2023-01-13T07:45:38.913Z,4.20
2023-01-13T07:48:07.012Z,5.60
2023-01-13T07:50:35.005Z,3.60
2023-01-13T07:53:03.277Z,2.40
2023-01-13T07:55:31.140Z,4.30
2023-01-13T07:57:59.134Z,2.50
2023-01-13T08:00:27.266Z,2.30
2023-01-13T08:02:55.328Z,2.00
2023-01-13T08:05:23.467Z,1.90
2023-01-13T08:07:51.401Z,2.10
2023-01-13T08:13:13.161Z,2.20
2023-01-13T08:15:43.695Z,2.20
2023-01-13T08:18:12.028Z,2.00
2023-01-13T08:20:40.052Z,2.00
2023-01-13T08:23:08.007Z,2.30
2023-01-13T08:25:35.813Z,1.80
2023-01-13T08:28:04.068Z,2.10
2023-01-13T08:30:34.938Z,1.70
2023-01-13T08:33:06.515Z,1.80
2023-01-13T08:35:36.168Z,1.90
2023-01-13T08:38:04.621Z,1.60
2023-01-13T08:40:42.772Z,1.90
2023-01-13T08:43:11.010Z,2.00
2023-01-13T08:45:39.185Z,2.60
2023-01-13T08:48:12.590Z,2.00
2023-01-13T08:50:40.679Z,2.60
2023-01-13T08:53:27.792Z,1.90
2023-01-13T08:55:56.034Z,2.30
2023-01-13T08:58:24.083Z,2.40
2023-01-13T09:03:26.348Z,2.20
2023-01-13T09:05:54.640Z,2.10
2023-01-13T09:08:22.879Z,2.80
2023-01-13T09:11:23.840Z,2.30
2023-01-13T09:13:51.945Z,2.50
2023-01-13T09:16:19.848Z,2.10
2023-01-13T09:18:47.763Z,2.50
2023-01-13T09:21:19.772Z,2.40
2023-01-13T09:23:47.924Z,2.00
2023-01-13T09:26:18.173Z,1.60
2023-01-13T09:28:48.914Z,2.40
2023-01-13T09:31:17.142Z,2.20
2023-01-13T09:34:03.556Z,2.20
2023-01-13T09:36:31.560Z,2.10
2023-01-13T09:38:59.596Z,1.80
2023-01-13T09:41:47.394Z,2.60
2023-01-13T09:44:47.622Z,2.00
2023-01-13T09:47:33.558Z,2.30
2023-01-13T09:50:19.897Z,2.10
2023-01-13T09:56:05.194Z,2.50
2023-01-13T09:58:33.304Z,2.20
2023-01-13T10:01:27.515Z,1.90
2023-01-13T10:03:55.541Z,2.50
2023-01-13T10:06:33.472Z,3.10
2023-01-13T10:09:01.669Z,2.30
2023-01-13T10:11:51.566Z,2.00
2023-01-13T10:14:19.508Z,1.40
2023-01-13T10:16:50.141Z,2.10
2023-01-13T10:22:07.296Z,1.70
2023-01-13T10:24:55.935Z,1.70
2023-01-13T10:27:23.967Z,2.20
2023-01-13T10:29:51.857Z,2.00
2023-01-13T10:32:19.770Z,2.30
2023-01-13T10:34:51.720Z,1.70
2023-01-13T10:37:25.877Z,2.00
2023-01-13T10:39:57.563Z,2.20
2023-01-13T10:42:25.582Z,2.10
2023-01-13T10:44:53.728Z,2.20
2023-01-13T10:47:26.658Z,2.20
2023-01-13T10:50:09.386Z,2.40
2023-01-13T10:52:42.793Z,2.80
2023-01-13T10:55:22.915Z,3.70
2023-01-13T10:57:50.926Z,2.30
2023-01-13T11:00:39.275Z,2.20
2023-01-13T11:03:13.959Z,3.30
2023-01-13T11:05:48.307Z,7.50
2023-01-13T11:08:21.205Z,6.70
2023-01-13T11:10:52.880Z,12.00
2023-01-13T11:13:32.861Z,3.50
2023-01-13T11:16:19.472Z,3.50
2023-01-13T11:19:24.163Z,3.40
2023-01-13T11:21:54.595Z,2.10
2023-01-13T11:24:37.829Z,3.00
2023-01-13T11:27:05.911Z,2.10
2023-01-13T11:29:33.839Z,2.80
2023-01-13T11:32:09.368Z,3.60
2023-01-13T11:34:39.807Z,2.50
2023-01-13T11:37:10.762Z,2.10
2023-01-13T11:42:39.312Z,2.30
2023-01-13T11:45:17.070Z,8.50
2023-01-13T11:47:47.298Z,5.60
2023-01-13T11:50:17.455Z,3.60
2023-01-13T11:52:51.454Z,3.60
2023-01-13T11:55:39.860Z,5.40
2023-01-13T11:58:16.876Z,24.10
2023-01-13T12:00:51.027Z,44.80
2023-01-13T12:03:38.259Z,7.20
2023-01-13T12:06:11.588Z,7.30
2023-01-13T12:08:46.092Z,13.90
2023-01-13T12:11:22.086Z,8.10
2023-01-13T12:13:50.240Z,6.70
2023-01-13T12:16:25.782Z,6.80
2023-01-13T12:18:56.456Z,4.90
2023-01-13T12:21:26.533Z,5.00
2023-01-13T12:23:54.619Z,4.60
2023-01-13T12:26:23.396Z,5.00
2023-01-13T12:28:55.147Z,3.80
2023-01-13T12:31:23.815Z,4.40
2023-01-13T12:34:12.080Z,4.30
2023-01-13T12:36:40.307Z,3.90
2023-01-13T12:39:19.694Z,4.20
2023-01-13T12:42:10.271Z,3.80
2023-01-13T12:44:58.310Z,3.90
2023-01-13T12:47:47.202Z,4.30
2023-01-13T12:50:24.925Z,4.60
2023-01-13T12:52:57.784Z,4.30
2023-01-13T12:55:26.059Z,4.40
2023-01-13T12:57:58.629Z,4.10
2023-01-13T13:00:52.556Z,5.40
2023-01-13T13:03:35.200Z,4.20
2023-01-13T13:06:12.591Z,3.80
2023-01-13T13:08:51.756Z,4.30
2023-01-13T13:11:42.893Z,5.60
2023-01-13T13:14:12.367Z,7.30
2023-01-13T13:16:52.840Z,8.30
2023-01-13T13:19:21.292Z,6.50
2023-01-13T13:22:10.864Z,19.40
2023-01-13T13:24:58.976Z,8.30
2023-01-13T13:27:45.892Z,5.00
2023-01-13T13:30:17.145Z,5.50
2023-01-13T13:32:59.643Z,8.70
2023-01-13T13:35:43.242Z,5.70
2023-01-13T13:38:48.642Z,7.10
2023-01-13T13:41:37.122Z,9.40
2023-01-13T13:44:40.088Z,8.00
2023-01-13T13:47:08.236Z,12.40
2023-01-13T13:49:40.406Z,9.40
2023-01-13T13:55:36.785Z,19.70
2023-01-13T13:58:06.102Z,7.00
2023-01-13T14:00:35.588Z,10.30
2023-01-13T14:03:06.246Z,13.40
2023-01-13T14:05:37.965Z,22.40
2023-01-13T14:08:17.195Z,20.40
2023-01-13T14:10:46.259Z,52.50
2023-01-13T14:13:30.786Z,33.20
2023-01-13T14:16:02.576Z,30.10
2023-01-13T14:18:35.541Z,26.90
2023-01-13T14:21:12.469Z,115.30
2023-01-13T14:23:40.729Z,107.40
2023-01-13T14:26:15.102Z,59.10
2023-01-13T14:28:44.023Z,34.30
2023-01-13T14:31:13.561Z,25.40
2023-01-13T14:34:31.112Z,23.30
2023-01-13T14:36:57.520Z,54.90
2023-01-13T14:39:33.388Z,35.00
2023-01-13T14:42:01.725Z,120.80
2023-01-13T14:44:35.055Z,37.10
2023-01-13T14:47:04.498Z,42.50
2023-01-13T14:50:01.136Z,60.50
2023-01-13T14:52:33.598Z,88.40
2023-01-13T14:55:08.720Z,38.40
2023-01-13T14:57:39.934Z,93.50
2023-01-13T15:00:13.993Z,43.90
2023-01-13T15:02:43.174Z,74.70
2023-01-13T15:05:18.654Z,35.30
2023-01-13T15:07:57.050Z,43.40
2023-01-13T15:10:30.888Z,21.10
2023-01-13T15:13:00.290Z,74.30
2023-01-13T15:15:34.462Z,54.70
2023-01-13T15:18:06.017Z,38.80
2023-01-13T15:20:33.927Z,39.90
2023-01-13T15:23:02.097Z,24.90
2023-01-13T15:25:33.758Z,24.10
2023-01-13T15:28:01.955Z,21.10
2023-01-13T15:30:29.858Z,18.80
2023-01-13T15:32:58.389Z,28.10
2023-01-13T15:35:29.170Z,21.10
2023-01-13T15:37:57.228Z,34.60
2023-01-13T15:40:26.846Z,26.30
2023-01-13T15:43:13.438Z,18.10
2023-01-13T15:46:00.723Z,16.50
2023-01-13T15:48:32.057Z,19.70
2023-01-13T15:51:00.495Z,20.50
2023-01-13T15:53:33.673Z,44.20
2023-01-13T15:56:02.105Z,86.20
2023-01-13T15:58:33.014Z,110.50
2023-01-13T16:01:01.470Z,86.60
2023-01-13T16:03:29.525Z,74.30
2023-01-13T16:05:57.785Z,143.50
2023-01-13T16:08:25.757Z,97.00
2023-01-13T16:10:53.732Z,86.80
2023-01-13T16:13:21.809Z,73.80
2023-01-13T16:15:50.096Z,60.10
2023-01-13T16:18:19.757Z,42.30
2023-01-13T16:20:47.960Z,62.60
2023-01-13T16:23:15.996Z,50.10
2023-01-13T16:25:49.189Z,34.00
2023-01-13T16:28:22.032Z,18.80
2023-01-13T16:30:51.196Z,19.40
2023-01-13T16:33:19.327Z,16.50
2023-01-13T16:36:10.710Z,16.20
2023-01-13T16:38:36.929Z,20.60
2023-01-13T16:41:05.376Z,29.50
2023-01-13T16:43:35.780Z,33.10
2023-01-13T16:46:14.896Z,30.80
2023-01-13T16:48:53.584Z,28.30
2023-01-13T16:51:22.330Z,29.00
2023-01-13T16:53:51.058Z,25.20
2023-01-13T16:56:25.023Z,34.40
2023-01-13T16:58:54.132Z,32.00
2023-01-13T17:01:22.269Z,29.80
2023-01-13T17:03:51.524Z,24.70
2023-01-13T17:06:42.322Z,50.40
2023-01-13T17:09:20.933Z,73.60
2023-01-13T17:11:49.217Z,47.10
2023-01-13T17:14:19.571Z,43.30
2023-01-13T17:16:52.208Z,49.60
2023-01-13T17:19:24.126Z,39.80
2023-01-13T17:21:54.351Z,47.40
2023-01-13T17:24:24.754Z,58.60
2023-01-13T17:26:52.913Z,41.20
2023-01-13T17:29:22.618Z,72.50
2023-01-13T17:31:51.435Z,73.70
2023-01-13T17:34:20.418Z,54.50
2023-01-13T17:36:48.610Z,54.50
2023-01-13T17:39:18.010Z,47.20
2023-01-13T17:41:56.064Z,46.60
2023-01-13T17:46:55.075Z,30.30
2023-01-13T17:49:23.354Z,37.60
2023-01-13T17:51:51.669Z,270.40
2023-01-13T17:54:19.772Z,39.90
2023-01-13T17:56:47.799Z,24.90
2023-01-13T17:59:17.446Z,38.60
2023-01-13T18:01:45.934Z,26.80
2023-01-13T18:04:15.512Z,24.90
2023-01-13T18:06:43.890Z,38.40
2023-01-13T18:09:12.527Z,18.00
2023-01-13T18:11:40.491Z,17.70
2023-01-13T18:14:09.702Z,135.70
2023-01-13T18:16:38.240Z,84.20
2023-01-13T18:19:25.307Z,157.00
2023-01-13T18:22:11.905Z,42.50
2023-01-13T18:24:58.375Z,45.30
2023-01-13T18:27:31.538Z,36.10
2023-01-13T18:30:02.207Z,37.90
2023-01-13T18:32:33.004Z,57.70
2023-01-13T18:35:06.105Z,69.80
2023-01-13T18:37:42.450Z,68.80
2023-01-13T18:40:12.226Z,51.80
2023-01-13T18:42:53.707Z,39.70
2023-01-13T18:45:26.773Z,40.90
2023-01-13T18:47:55.431Z,40.70
2023-01-13T18:50:23.714Z,39.60
2023-01-13T18:52:52.108Z,37.30
2023-01-13T18:55:20.847Z,39.60
2023-01-13T18:57:49.514Z,38.90
2023-01-13T19:00:19.280Z,38.70
2023-01-13T19:02:47.717Z,49.90
2023-01-13T19:05:19.491Z,37.80
2023-01-13T19:07:51.830Z,44.20
2023-01-13T19:10:23.319Z,47.40
2023-01-13T19:12:54.016Z,56.90
2023-01-13T19:15:32.655Z,49.70
2023-01-13T19:18:10.906Z,60.30
2023-01-13T19:20:41.521Z,60.00
2023-01-13T19:23:12.822Z,28.10
2023-01-13T19:25:50.315Z,43.90
2023-01-13T19:28:22.141Z,20.00
2023-01-13T19:31:00.638Z,36.90
2023-01-13T19:33:39.167Z,46.10
2023-01-13T19:36:09.642Z,42.80
2023-01-13T19:38:59.302Z,43.40
2023-01-13T19:41:45.964Z,35.10
2023-01-13T19:44:42.771Z,25.20
2023-01-13T19:47:18.351Z,31.20
2023-01-13T19:50:08.242Z,27.70
2023-01-13T19:52:42.230Z,29.10
2023-01-13T19:55:13.526Z,45.60
2023-01-13T19:57:45.179Z,42.00
2023-01-13T20:00:32.030Z,31.40
2023-01-13T20:03:03.534Z,27.00
2023-01-13T20:05:31.622Z,24.90
2023-01-13T20:07:59.837Z,22.60
2023-01-13T20:10:30.446Z,24.80
2023-01-13T20:12:59.451Z,18.60
2023-01-13T20:15:28.028Z,17.30
2023-01-13T20:18:03.395Z,20.40
2023-01-13T20:20:31.655Z,18.50
2023-01-13T20:23:04.843Z,16.70
2023-01-13T20:25:32.947Z,20.70
2023-01-13T20:28:02.343Z,20.90
2023-01-13T20:30:30.467Z,16.00
2023-01-13T20:33:01.739Z,19.70
2023-01-13T20:35:29.914Z,17.20
2023-01-13T20:37:58.501Z,9.60
2023-01-13T20:40:26.976Z,7.70
2023-01-13T20:42:55.066Z,6.80
2023-01-13T20:45:35.414Z,6.70
2023-01-13T20:48:03.371Z,5.00
2023-01-13T20:50:31.729Z,5.10
2023-01-13T20:53:09.042Z,5.00
2023-01-13T20:55:39.692Z,4.40
2023-01-13T20:58:10.066Z,3.70
2023-01-13T21:00:46.609Z,3.90
2023-01-13T21:03:15.074Z,6.20
2023-01-13T21:05:43.224Z,4.80
2023-01-13T21:08:11.096Z,2.60
2023-01-13T21:10:39.264Z,2.20
2023-01-13T21:13:25.872Z,2.70
2023-01-13T21:15:57.434Z,2.80
2023-01-13T21:18:53.025Z,2.50
2023-01-13T21:21:20.888Z,2.80
2023-01-13T21:23:55.226Z,2.70
2023-01-13T21:28:51.364Z,2.20
2023-01-13T21:31:28.677Z,2.80
2023-01-13T21:33:59.607Z,2.50
2023-01-13T21:36:28.137Z,2.30
2023-01-13T21:39:08.276Z,2.60
2023-01-13T21:41:58.116Z,2.30
2023-01-13T21:44:52.703Z,2.10
2023-01-13T21:47:42.490Z,2.20
2023-01-13T21:50:14.465Z,1.70
2023-01-13T21:52:55.010Z,1.90
2023-01-13T21:55:29.386Z,1.80
2023-01-13T21:58:38.941Z,1.90
2023-01-13T22:01:07.378Z,2.60
2023-01-13T22:04:03.328Z,2.10
2023-01-13T22:06:31.256Z,1.70
2023-01-13T22:09:30.191Z,1.60
2023-01-13T22:12:04.230Z,2.00
2023-01-13T22:15:15.049Z,2.10
2023-01-13T22:18:03.540Z,2.20
2023-01-13T22:20:31.887Z,2.00
2023-01-13T22:23:02.392Z,1.70
2023-01-13T22:25:33.639Z,1.70
2023-01-13T22:28:06.115Z,1.80
2023-01-13T22:30:34.150Z,2.30
2023-01-13T22:33:04.523Z,1.90
2023-01-13T22:35:44.736Z,1.60
2023-01-13T22:38:15.921Z,1.50
2023-01-13T22:40:46.946Z,1.50
2023-01-13T22:45:55.683Z,1.80
2023-01-13T22:48:48.454Z,2.10
2023-01-13T22:52:06.895Z,2.10
2023-01-13T22:54:50.454Z,2.10
2023-01-13T22:57:49.088Z,1.80
2023-01-13T23:00:28.858Z,2.10
2023-01-13T23:02:59.895Z,2.40
2023-01-13T23:05:28.358Z,2.30
2023-01-13T23:08:04.135Z,1.90
2023-01-13T23:10:34.817Z,2.30
2023-01-13T23:13:12.237Z,2.40
2023-01-13T23:15:45.075Z,2.30
2023-01-13T23:18:38.611Z,2.20
2023-01-13T23:21:11.106Z,1.60
2023-01-13T23:24:08.902Z,1.80
2023-01-13T23:26:39.465Z,2.00
2023-01-13T23:29:11.812Z,2.10
2023-01-13T23:31:40.751Z,1.80
2023-01-13T23:34:11.467Z,2.00
2023-01-13T23:36:51.572Z,2.00
2023-01-13T23:39:24.651Z,1.90
2023-01-13T23:41:52.887Z,1.70
2023-01-13T23:44:29.513Z,1.40
2023-01-13T23:46:57.715Z,1.80
2023-01-13T23:49:25.843Z,1.70
2023-01-13T23:55:12.627Z,1.80
2023-01-13T23:57:41.172Z,1.90
